createdAt,value
2018-05-04T00:02:00.012Z,59.70
2018-05-04T00:04:26.852Z,59.70
2018-05-04T00:06:53.712Z,59.50
2018-05-04T00:09:20.598Z,59.60
2018-05-04T00:11:47.506Z,59.80
2018-05-04T00:14:14.451Z,59.80
2018-05-04T00:16:41.288Z,60.10
2018-05-04T00:19:08.220Z,59.80
2018-05-04T00:21:35.074Z,59.60
2018-05-04T00:24:01.918Z,59.60
2018-05-04T00:26:28.879Z,59.70
2018-05-04T00:28:55.751Z,60.00
2018-05-04T00:31:22.589Z,59.80
2018-05-04T00:33:49.455Z,59.90
2018-05-04T00:36:16.297Z,60.20
2018-05-04T00:38:43.164Z,60.10
2018-05-04T00:41:09.999Z,60.00
2018-05-04T00:43:37.229Z,60.30
2018-05-04T00:46:04.151Z,60.30
2018-05-04T00:48:31.004Z,60.30
2018-05-04T00:50:57.882Z,60.20
2018-05-04T00:53:24.751Z,60.40
2018-05-04T00:55:51.746Z,60.40
2018-05-04T00:58:18.526Z,60.40
2018-05-04T01:00:45.508Z,60.40
2018-05-04T01:03:12.447Z,60.30
2018-05-04T01:05:39.322Z,60.20
2018-05-04T01:08:06.186Z,60.20
2018-05-04T01:10:33.131Z,60.40
2018-05-04T01:12:59.967Z,60.40
2018-05-04T01:15:26.935Z,60.40
2018-05-04T01:17:53.789Z,60.20
2018-05-04T01:20:20.637Z,60.10
2018-05-04T01:22:47.923Z,60.10
2018-05-04T01:25:14.787Z,60.10
2018-05-04T01:27:41.631Z,60.00
2018-05-04T01:30:08.482Z,60.10
2018-05-04T01:32:35.389Z,60.10
2018-05-04T01:35:02.231Z,60.00
2018-05-04T01:37:29.092Z,59.90
2018-05-04T01:39:55.968Z,59.90
2018-05-04T01:42:22.818Z,59.60
2018-05-04T01:44:49.743Z,59.70
2018-05-04T01:47:16.593Z,59.80
2018-05-04T01:49:43.448Z,59.90
2018-05-04T01:52:10.307Z,60.10
2018-05-04T01:54:37.183Z,60.10
2018-05-04T01:57:04.030Z,60.20
2018-05-04T01:59:30.902Z,60.30
2018-05-04T02:01:57.781Z,60.30
2018-05-04T02:04:24.626Z,60.30
2018-05-04T02:06:51.523Z,60.70
2018-05-04T02:09:18.823Z,60.50
2018-05-04T02:11:45.688Z,60.50
2018-05-04T02:14:12.530Z,60.50
2018-05-04T02:16:39.410Z,60.70
2018-05-04T02:19:06.272Z,60.70
2018-05-04T02:21:33.131Z,60.70
2018-05-04T02:24:00.024Z,60.50
2018-05-04T02:26:26.891Z,60.70
2018-05-04T02:28:53.745Z,61.30
2018-05-04T02:31:20.746Z,61.30
2018-05-04T02:33:47.595Z,61.60
2018-05-04T02:36:14.458Z,62.30
2018-05-04T02:38:41.326Z,62.00
2018-05-04T02:41:08.159Z,62.70
2018-05-04T02:43:35.003Z,62.90
2018-05-04T02:46:02.270Z,63.40
2018-05-04T02:48:29.706Z,63.90
2018-05-04T02:50:56.674Z,63.90
2018-05-04T02:53:23.581Z,64.20
2018-05-04T02:55:50.446Z,64.50
2018-05-04T02:58:17.321Z,64.40
2018-05-04T03:00:44.199Z,63.30
2018-05-04T03:03:12.075Z,63.10
2018-05-04T03:05:39.015Z,63.10
2018-05-04T03:08:05.886Z,63.00
2018-05-04T03:10:32.770Z,62.80
2018-05-04T03:12:59.666Z,63.10
2018-05-04T03:15:26.528Z,62.80
2018-05-04T03:17:53.583Z,62.70
2018-05-04T03:20:20.452Z,63.20
2018-05-04T03:22:47.307Z,64.00
2018-05-04T03:25:14.180Z,64.50
2018-05-04T03:27:41.020Z,65.00
2018-05-04T03:30:07.896Z,65.10
2018-05-04T03:32:34.763Z,65.00
2018-05-04T03:35:01.606Z,64.60
2018-05-04T03:37:28.727Z,65.70
2018-05-04T03:39:55.790Z,65.80
2018-05-04T03:42:23.026Z,66.20
2018-05-04T03:44:49.938Z,66.20
2018-05-04T03:47:16.902Z,66.10
2018-05-04T03:49:43.740Z,66.50
2018-05-04T03:52:10.685Z,67.00
2018-05-04T03:54:37.855Z,66.40
2018-05-04T03:57:16.926Z,66.10
2018-05-04T03:59:55.811Z,66.10
2018-05-04T04:02:34.738Z,66.00
2018-05-04T04:05:01.537Z,66.30
2018-05-04T04:07:28.842Z,66.70
2018-05-04T04:09:55.737Z,66.70
2018-05-04T04:12:22.603Z,66.10
2018-05-04T04:14:49.855Z,67.10
2018-05-04T04:17:16.758Z,67.10
2018-05-04T04:19:43.640Z,67.70
2018-05-04T04:22:10.471Z,67.70
2018-05-04T04:24:37.311Z,67.20
2018-05-04T04:27:05.394Z,67.30
2018-05-04T04:29:32.635Z,67.60
2018-05-04T04:31:59.490Z,67.60
2018-05-04T04:34:26.414Z,68.30
2018-05-04T04:36:53.257Z,68.50
2018-05-04T04:39:20.211Z,68.20
2018-05-04T04:41:47.074Z,67.60
2018-05-04T04:44:13.995Z,67.20
2018-05-04T04:46:40.835Z,67.50
2018-05-04T04:49:07.823Z,68.00
2018-05-04T04:51:34.874Z,68.00
2018-05-04T04:54:01.772Z,68.10
2018-05-04T04:56:28.616Z,67.90
2018-05-04T04:58:55.491Z,67.70
2018-05-04T05:01:22.442Z,67.70
2018-05-04T05:03:49.286Z,67.20
2018-05-04T05:06:16.572Z,68.00
2018-05-04T05:08:43.434Z,68.00
2018-05-04T05:11:10.287Z,69.20
2018-05-04T05:13:37.246Z,69.20
2018-05-04T05:16:04.086Z,69.20
2018-05-04T05:18:30.935Z,68.50
2018-05-04T05:20:58.199Z,66.70
2018-05-04T05:23:25.441Z,66.50
2018-05-04T05:25:52.358Z,66.40
2018-05-04T05:28:19.226Z,66.00
2018-05-04T05:30:46.073Z,65.60
2018-05-04T05:33:12.916Z,66.00
2018-05-04T05:35:39.820Z,65.60
2018-05-04T05:38:06.624Z,65.50
2018-05-04T05:40:33.477Z,65.00
2018-05-04T05:43:00.346Z,64.10
2018-05-04T05:45:27.283Z,64.40
2018-05-04T05:47:54.516Z,63.90
2018-05-04T05:50:21.388Z,63.90
2018-05-04T05:52:48.232Z,63.70
2018-05-04T05:55:15.232Z,63.30
2018-05-04T05:57:42.516Z,62.20
2018-05-04T06:00:09.356Z,62.20
2018-05-04T06:02:36.195Z,61.60
2018-05-04T06:05:03.500Z,61.30
2018-05-04T06:07:30.548Z,61.30
2018-05-04T06:09:57.481Z,61.50
2018-05-04T06:12:24.729Z,61.70
2018-05-04T06:14:51.586Z,61.70
2018-05-04T06:17:18.501Z,61.00
2018-05-04T06:19:45.329Z,61.10
2018-05-04T06:22:12.186Z,61.10
2018-05-04T06:24:39.453Z,60.50
2018-05-04T06:27:06.305Z,60.50
2018-05-04T06:29:33.594Z,61.00
2018-05-04T06:32:00.499Z,61.00
2018-05-04T06:34:27.342Z,60.90
2018-05-04T06:36:54.308Z,60.90
2018-05-04T06:39:21.360Z,60.60
2018-05-04T06:41:48.294Z,60.40
2018-05-04T06:44:15.244Z,59.20
2018-05-04T06:46:42.087Z,58.50
2018-05-04T06:49:08.968Z,58.20
2018-05-04T06:51:35.817Z,59.10
2018-05-04T06:54:02.670Z,58.70
2018-05-04T06:56:29.647Z,58.20
2018-05-04T06:58:56.681Z,58.90
2018-05-04T07:01:23.537Z,58.90
2018-05-04T07:03:50.846Z,59.00
2018-05-04T07:06:17.688Z,58.90
2018-05-04T07:08:44.526Z,58.80
2018-05-04T07:11:11.404Z,58.70
2018-05-04T07:13:38.239Z,59.00
2018-05-04T07:16:05.089Z,59.00
2018-05-04T07:18:32.409Z,58.10
2018-05-04T07:20:59.267Z,58.10
2018-05-04T07:23:26.120Z,58.30
2018-05-04T07:25:53.055Z,58.90
2018-05-04T07:28:19.923Z,59.00
2018-05-04T07:30:46.877Z,58.70
2018-05-04T07:33:13.756Z,59.10
2018-05-04T07:35:40.690Z,58.50
2018-05-04T07:38:07.534Z,58.40
2018-05-04T07:40:34.402Z,58.80
2018-05-04T07:43:01.303Z,58.40
2018-05-04T07:45:28.142Z,58.20
2018-05-04T07:47:55.161Z,58.10
2018-05-04T07:50:22.091Z,58.00
2018-05-04T07:52:49.366Z,58.20
2018-05-04T07:55:16.687Z,58.10
2018-05-04T07:57:43.534Z,58.10
2018-05-04T08:00:10.402Z,58.40
2018-05-04T08:02:37.241Z,58.40
2018-05-04T08:05:04.106Z,58.70
2018-05-04T08:07:30.980Z,58.60
2018-05-04T08:09:57.881Z,59.10
2018-05-04T08:12:25.161Z,58.10
2018-05-04T08:14:52.402Z,57.40
2018-05-04T08:17:19.302Z,57.40
2018-05-04T08:19:46.164Z,56.90
2018-05-04T08:22:13.108Z,57.80
2018-05-04T08:24:40.055Z,57.70
2018-05-04T08:27:06.893Z,57.90
2018-05-04T08:29:34.156Z,57.50
2018-05-04T08:32:01.095Z,57.50
2018-05-04T08:34:28.026Z,57.50
2018-05-04T08:36:54.874Z,57.50
2018-05-04T08:39:21.829Z,57.20
2018-05-04T08:41:48.663Z,57.90
2018-05-04T08:44:15.948Z,56.60
2018-05-04T08:46:43.252Z,57.20
2018-05-04T08:49:10.513Z,56.80
2018-05-04T08:51:37.450Z,56.80
2018-05-04T08:54:04.295Z,56.90
2018-05-04T08:56:31.184Z,57.00
2018-05-04T08:58:58.004Z,57.90
2018-05-04T09:01:24.869Z,57.00
2018-05-04T09:03:51.731Z,56.60
2018-05-04T09:06:18.580Z,56.10
2018-05-04T09:08:45.501Z,56.80
2018-05-04T09:11:12.351Z,56.50
2018-05-04T09:13:39.264Z,56.50
2018-05-04T09:16:06.139Z,56.20
2018-05-04T09:18:33.079Z,56.80
2018-05-04T09:20:59.928Z,56.70
2018-05-04T09:23:26.815Z,56.30
2018-05-04T09:25:53.674Z,56.90
2018-05-04T09:28:20.522Z,56.40
2018-05-04T09:30:47.378Z,55.90
2018-05-04T09:33:14.365Z,56.20
2018-05-04T09:35:41.276Z,56.00
2018-05-04T09:38:08.132Z,56.10
2018-05-04T09:40:35.117Z,55.70
2018-05-04T09:43:01.947Z,56.30
2018-05-04T09:45:28.828Z,56.10
2018-05-04T09:47:55.669Z,54.70
2018-05-04T09:50:22.591Z,54.00
2018-05-04T09:52:49.912Z,55.10
2018-05-04T09:55:17.376Z,55.10
2018-05-04T09:57:44.247Z,54.90
2018-05-04T10:00:11.105Z,54.70
2018-05-04T10:02:37.952Z,54.30
2018-05-04T10:05:04.818Z,54.30
2018-05-04T10:07:31.691Z,54.70
2018-05-04T10:09:58.619Z,55.60
2018-05-04T10:12:25.450Z,55.50
2018-05-04T10:14:52.519Z,54.70
2018-05-04T10:17:19.582Z,54.30
2018-05-04T10:19:46.857Z,54.10
2018-05-04T10:22:13.823Z,54.20
2018-05-04T10:24:40.683Z,54.10
2018-05-04T10:27:07.537Z,54.30
2018-05-04T10:29:34.505Z,55.50
2018-05-04T10:32:01.408Z,55.10
2018-05-04T10:34:28.265Z,54.80
2018-05-04T10:36:55.527Z,55.40
2018-05-04T10:39:22.828Z,55.40
2018-05-04T10:41:50.056Z,54.40
2018-05-04T10:44:16.950Z,54.40
2018-05-04T10:46:43.818Z,54.40
2018-05-04T10:49:10.716Z,54.50
2018-05-04T10:51:37.678Z,54.80
2018-05-04T10:54:04.883Z,54.40
2018-05-04T10:56:31.814Z,54.20
2018-05-04T10:58:58.739Z,53.90
2018-05-04T11:01:25.598Z,54.50
2018-05-04T11:03:52.438Z,54.60
2018-05-04T11:06:19.403Z,54.50
2018-05-04T11:08:46.222Z,53.90
2018-05-04T11:11:13.488Z,53.60
2018-05-04T11:13:40.759Z,53.40
2018-05-04T11:16:08.050Z,53.40
2018-05-04T11:18:34.906Z,53.40
2018-05-04T11:21:01.760Z,53.20
2018-05-04T11:23:28.666Z,52.40
2018-05-04T11:25:55.606Z,52.50
2018-05-04T11:28:22.535Z,52.60
2018-05-04T11:30:49.459Z,52.60
2018-05-04T11:33:16.238Z,52.60
2018-05-04T11:35:43.215Z,52.70
2018-05-04T11:38:10.056Z,53.20
2018-05-04T11:40:37.017Z,53.30
2018-05-04T11:43:04.230Z,53.90
2018-05-04T11:45:31.145Z,54.00
2018-05-04T11:47:57.987Z,53.20
2018-05-04T11:50:24.896Z,53.10
2018-05-04T11:52:51.829Z,53.40
2018-05-04T11:55:18.774Z,52.60
2018-05-04T11:57:45.645Z,52.20
2018-05-04T12:00:12.502Z,51.60
2018-05-04T12:02:39.467Z,51.90
2018-05-04T12:05:06.322Z,52.90
2018-05-04T12:07:33.172Z,52.10
2018-05-04T12:10:00.060Z,52.20
2018-05-04T12:12:27.006Z,53.40
2018-05-04T12:14:53.845Z,52.70
2018-05-04T12:17:20.842Z,51.80
2018-05-04T12:19:47.713Z,52.30
2018-05-04T12:22:14.576Z,51.70
2018-05-04T12:24:41.392Z,52.30
2018-05-04T12:27:08.322Z,52.50
2018-05-04T12:29:35.179Z,52.50
2018-05-04T12:32:02.055Z,52.50
2018-05-04T12:34:29.019Z,52.00
2018-05-04T12:36:55.878Z,51.30
2018-05-04T12:39:22.738Z,51.90
2018-05-04T12:41:49.694Z,51.70
2018-05-04T12:44:16.573Z,52.00
2018-05-04T12:46:43.385Z,52.20
2018-05-04T12:49:10.263Z,52.30
2018-05-04T12:51:37.196Z,52.40
2018-05-04T12:54:04.087Z,52.70
2018-05-04T12:56:30.893Z,52.40
2018-05-04T12:58:58.186Z,52.20
2018-05-04T13:01:25.137Z,52.20
2018-05-04T13:03:52.100Z,52.20
2018-05-04T13:06:18.979Z,52.10
2018-05-04T13:08:46.022Z,52.50
2018-05-04T13:11:13.347Z,52.20
2018-05-04T13:13:40.667Z,52.00
2018-05-04T13:16:07.627Z,52.00
2018-05-04T13:18:34.472Z,51.70
2018-05-04T13:21:01.356Z,51.90
2018-05-04T13:23:28.254Z,51.50
2018-05-04T13:25:55.511Z,51.80
2018-05-04T13:28:22.350Z,51.80
2018-05-04T13:30:49.195Z,51.70
2018-05-04T13:33:16.059Z,51.70
2018-05-04T13:35:42.983Z,51.10
2018-05-04T13:38:09.834Z,51.00
2018-05-04T13:40:36.790Z,51.00
2018-05-04T13:43:03.658Z,50.60
2018-05-04T13:45:30.578Z,50.60
2018-05-04T13:47:57.473Z,50.40
2018-05-04T13:50:24.498Z,49.90
2018-05-04T13:52:51.328Z,49.60
2018-05-04T13:55:18.219Z,50.40
2018-05-04T13:57:45.503Z,49.90
2018-05-04T14:00:12.347Z,49.90
2018-05-04T14:02:39.643Z,50.30
2018-05-04T14:05:06.587Z,50.30
2018-05-04T14:07:33.449Z,49.60
2018-05-04T14:10:00.340Z,49.50
2018-05-04T14:12:27.291Z,49.60
2018-05-04T14:14:54.155Z,49.90
2018-05-04T14:17:21.033Z,49.30
2018-05-04T14:19:47.892Z,49.30
2018-05-04T14:22:14.735Z,49.60
2018-05-04T14:24:41.650Z,49.60
2018-05-04T14:27:08.558Z,49.20
2018-05-04T14:29:35.382Z,49.70
2018-05-04T14:32:02.410Z,49.70
2018-05-04T14:34:29.671Z,49.70
2018-05-04T14:36:56.915Z,49.10
2018-05-04T14:39:23.763Z,49.10
2018-05-04T14:41:50.624Z,49.50
2018-05-04T14:44:17.548Z,49.00
2018-05-04T14:46:44.486Z,48.40
2018-05-04T14:49:11.363Z,48.50
2018-05-04T14:51:38.348Z,48.50
2018-05-04T14:54:05.199Z,48.50
2018-05-04T14:56:32.194Z,48.40
2018-05-04T14:58:59.425Z,48.70
2018-05-04T15:01:26.387Z,48.70
2018-05-04T15:03:53.242Z,49.00
2018-05-04T15:06:20.158Z,48.60
2018-05-04T15:08:47.015Z,48.90
2018-05-04T15:11:14.264Z,49.00
2018-05-04T15:13:41.500Z,48.40
2018-05-04T15:16:08.614Z,48.40
2018-05-04T15:18:35.383Z,49.00
2018-05-04T15:21:02.285Z,48.60
2018-05-04T15:23:29.170Z,48.00
2018-05-04T15:25:56.035Z,47.90
2018-05-04T15:28:22.889Z,47.90
2018-05-04T15:30:49.753Z,47.60
2018-05-04T15:33:16.647Z,47.70
2018-05-04T15:35:43.512Z,47.60
2018-05-04T15:38:10.483Z,47.70
2018-05-04T15:40:37.462Z,47.40
2018-05-04T15:43:04.271Z,47.60
2018-05-04T15:45:31.257Z,48.00
2018-05-04T15:47:58.114Z,48.20
2018-05-04T15:50:25.587Z,48.70
2018-05-04T15:52:53.432Z,48.30
2018-05-04T15:55:20.286Z,48.00
2018-05-04T15:57:47.142Z,48.50
2018-05-04T16:00:14.092Z,48.70
2018-05-04T16:02:40.939Z,48.40
2018-05-04T16:05:07.823Z,48.80
2018-05-04T16:07:34.703Z,48.40
2018-05-04T16:10:01.548Z,48.80
2018-05-04T16:12:28.462Z,49.00
2018-05-04T16:14:55.757Z,49.10
2018-05-04T16:17:22.711Z,49.10
2018-05-04T16:19:49.641Z,49.10
2018-05-04T16:22:16.535Z,48.60
2018-05-04T16:24:43.310Z,48.10
2018-05-04T16:27:10.206Z,47.60
2018-05-04T16:29:37.455Z,45.90
2018-05-04T16:32:04.375Z,45.90
2018-05-04T16:34:31.230Z,44.50
2018-05-04T16:36:58.128Z,43.90
2018-05-04T16:39:25.006Z,43.30
2018-05-04T16:41:51.848Z,43.30
2018-05-04T16:44:18.752Z,43.50
2018-05-04T16:46:45.717Z,43.80
2018-05-04T16:49:12.559Z,44.60
2018-05-04T16:51:39.517Z,45.60
2018-05-04T16:54:06.377Z,45.40
2018-05-04T16:56:33.239Z,45.90
2018-05-04T16:59:00.101Z,45.90
2018-05-04T17:01:26.948Z,46.00
2018-05-04T17:03:53.818Z,45.50
2018-05-04T17:06:20.764Z,45.70
2018-05-04T17:08:47.723Z,45.30
2018-05-04T17:11:14.619Z,46.00
2018-05-04T17:13:41.460Z,46.10
2018-05-04T17:16:08.416Z,46.30
2018-05-04T17:18:35.268Z,46.40
2018-05-04T17:21:02.146Z,46.20
2018-05-04T17:23:29.102Z,45.00
2018-05-04T17:25:55.967Z,44.70
2018-05-04T17:28:22.884Z,44.90
2018-05-04T17:30:49.730Z,45.10
2018-05-04T17:33:16.614Z,46.30
2018-05-04T17:35:43.454Z,45.90
2018-05-04T17:38:10.338Z,45.20
2018-05-04T17:40:37.175Z,45.50
2018-05-04T17:43:04.038Z,45.60
2018-05-04T17:45:30.985Z,45.40
2018-05-04T17:47:57.894Z,45.70
2018-05-04T17:50:24.817Z,45.80
2018-05-04T17:52:51.676Z,46.10
2018-05-04T17:55:18.533Z,46.20
2018-05-04T17:57:45.390Z,45.90
2018-05-04T18:00:12.340Z,46.10
2018-05-04T18:02:39.255Z,46.60
2018-05-04T18:05:06.139Z,47.30
2018-05-04T18:07:33.396Z,48.10
2018-05-04T18:10:00.667Z,48.40
2018-05-04T18:12:27.599Z,48.40
2018-05-04T18:14:54.446Z,48.90
2018-05-04T18:17:21.331Z,49.30
2018-05-04T18:19:48.154Z,49.30
2018-05-04T18:22:15.021Z,50.30
2018-05-04T18:24:41.895Z,50.90
2018-05-04T18:27:09.171Z,51.50
2018-05-04T18:29:36.399Z,52.00
2018-05-04T18:32:03.315Z,52.00
2018-05-04T18:34:30.169Z,52.70
2018-05-04T18:36:57.041Z,53.20
2018-05-04T18:39:23.896Z,53.70
2018-05-04T18:41:50.762Z,54.30
2018-05-04T18:44:17.709Z,54.70
2018-05-04T18:46:44.614Z,55.00
2018-05-04T18:49:11.530Z,54.90
2018-05-04T18:51:38.380Z,55.30
2018-05-04T18:54:05.226Z,55.50
2018-05-04T18:56:32.073Z,55.70
2018-05-04T18:58:58.954Z,55.90
2018-05-04T19:01:25.817Z,56.10
2018-05-04T19:03:52.683Z,56.20
2018-05-04T19:06:19.539Z,56.50
2018-05-04T19:08:46.471Z,56.80
2018-05-04T19:11:13.696Z,57.00
2018-05-04T19:13:40.551Z,57.00
2018-05-04T19:16:07.461Z,57.00
2018-05-04T19:18:34.425Z,57.20
2018-05-04T19:21:01.284Z,57.30
2018-05-04T19:23:28.148Z,57.20
2018-05-04T19:25:54.989Z,57.40
2018-05-04T19:28:21.872Z,57.60
2018-05-04T19:30:48.706Z,57.60
2018-05-04T19:33:15.543Z,57.50
2018-05-04T19:35:42.474Z,57.40
2018-05-04T19:38:09.318Z,57.30
2018-05-04T19:40:36.184Z,57.30
2018-05-04T19:43:03.049Z,57.30
2018-05-04T19:45:29.871Z,57.70
2018-05-04T19:47:56.830Z,57.70
2018-05-04T19:50:23.769Z,57.80
2018-05-04T19:52:50.632Z,57.50
2018-05-04T19:55:17.473Z,57.50
2018-05-04T19:57:44.343Z,57.60
2018-05-04T20:00:11.183Z,57.70
2018-05-04T20:02:38.038Z,57.70
2018-05-04T20:05:04.879Z,57.70
2018-05-04T20:07:31.823Z,57.80
2018-05-04T20:09:59.065Z,58.00
2018-05-04T20:12:25.915Z,57.90
2018-05-04T20:14:52.774Z,58.00
2018-05-04T20:17:19.683Z,58.30
2018-05-04T20:19:46.552Z,58.20
2018-05-04T20:22:13.386Z,58.20
2018-05-04T20:24:40.252Z,58.20
2018-05-04T20:27:07.119Z,58.20
2018-05-04T20:29:33.985Z,58.20
2018-05-04T20:32:00.948Z,58.20
2018-05-04T20:34:27.903Z,58.40
2018-05-04T20:36:54.776Z,58.40
2018-05-04T20:39:21.625Z,58.30
2018-05-04T20:41:48.563Z,58.20
2018-05-04T20:44:15.500Z,58.10
2018-05-04T20:46:42.274Z,58.00
2018-05-04T20:49:09.130Z,58.00
2018-05-04T20:51:35.981Z,58.20
2018-05-04T20:54:02.849Z,58.50
2018-05-04T20:56:29.686Z,58.40
2018-05-04T20:58:56.604Z,58.10
2018-05-04T21:01:23.425Z,58.20
2018-05-04T21:03:50.274Z,58.30
2018-05-04T21:06:17.321Z,58.40
2018-05-04T21:08:44.100Z,58.30
2018-05-04T21:11:10.951Z,58.30
2018-05-04T21:13:37.802Z,58.20
2018-05-04T21:16:04.689Z,58.20
2018-05-04T21:18:31.553Z,58.50
2018-05-04T21:20:58.419Z,58.40
2018-05-04T21:23:25.539Z,58.00
2018-05-04T21:25:52.800Z,58.20
2018-05-04T21:28:19.667Z,58.40
2018-05-04T21:30:46.657Z,59.10
2018-05-04T21:33:13.546Z,58.60
2018-05-04T21:35:40.813Z,58.30
2018-05-04T21:38:08.051Z,58.30
2018-05-04T21:40:34.907Z,58.30
2018-05-04T21:43:01.757Z,58.30
2018-05-04T21:45:28.707Z,58.50
2018-05-04T21:47:55.545Z,58.50
2018-05-04T21:50:22.396Z,58.70
2018-05-04T21:52:49.243Z,58.70
2018-05-04T21:55:16.105Z,58.80
2018-05-04T21:57:42.953Z,58.70
2018-05-04T22:00:09.803Z,58.90
2018-05-04T22:02:36.672Z,59.10
2018-05-04T22:05:03.519Z,59.00
2018-05-04T22:07:30.800Z,59.50
2018-05-04T22:09:57.757Z,59.50
2018-05-04T22:12:24.716Z,59.70
2018-05-04T22:14:51.598Z,59.60
2018-05-04T22:17:18.443Z,59.40
2018-05-04T22:19:45.287Z,59.30
2018-05-04T22:22:12.142Z,59.60
2018-05-04T22:24:38.994Z,59.80
2018-05-04T22:27:05.834Z,59.90
2018-05-04T22:29:33.081Z,59.80
2018-05-04T22:31:59.973Z,59.80
2018-05-04T22:34:26.864Z,59.70
2018-05-04T22:36:53.698Z,59.70
2018-05-04T22:39:20.542Z,59.60
2018-05-04T22:41:47.407Z,59.90
2018-05-04T22:44:14.274Z,60.00
2018-05-04T22:46:41.135Z,60.20
2018-05-04T22:49:07.977Z,60.40
2018-05-04T22:51:35.131Z,60.50
2018-05-04T22:54:02.421Z,60.30
2018-05-04T22:56:29.436Z,60.30
2018-05-04T22:58:56.585Z,60.80
2018-05-04T23:01:23.472Z,60.80
2018-05-04T23:03:50.707Z,60.70
2018-05-04T23:06:17.555Z,60.70
2018-05-04T23:08:44.414Z,60.70
2018-05-04T23:11:11.336Z,60.60
2018-05-04T23:13:38.202Z,60.50
2018-05-04T23:16:05.058Z,60.60
2018-05-04T23:18:31.914Z,60.60
2018-05-04T23:20:58.893Z,60.70
2018-05-04T23:23:25.834Z,60.50
2018-05-04T23:25:52.688Z,60.80
2018-05-04T23:28:19.562Z,60.80
2018-05-04T23:30:46.499Z,61.10
2018-05-04T23:33:13.355Z,61.20
2018-05-04T23:35:40.207Z,60.90
2018-05-04T23:38:07.075Z,61.10
2018-05-04T23:40:33.952Z,61.20
2018-05-04T23:43:00.812Z,61.10
2018-05-04T23:45:27.762Z,61.30
2018-05-04T23:47:54.609Z,61.40
2018-05-04T23:50:21.462Z,61.60
2018-05-04T23:52:48.418Z,61.30
2018-05-04T23:55:15.264Z,61.60
2018-05-04T23:57:42.129Z,61.30
